Terminal Aerodrome Forecast
Issued by NWS

Home | Current Version | Previous Version | Text Only | Print | Product List | Glossary Off
Versions: 1 2 3 4 5 6 7 8 9 10 11 12 13 14 15 16 17

000
FTUS43 KICT 172000 AAA
TAFCNU
TAF AMD
KCNU 172000Z 1720/1818 19022G26KT P6SM BKN028
     FM172100 20017G22KT P6SM SCT025 BKN200
     FM172300 19013KT P6SM BKN200
     FM180500 19013KT P6SM BKN008
     FM180800 28009KT 5SM BR OVC005
     FM181000 34022G30KT P6SM OVC008
     FM181200 34025G35KT P6SM OVC012=

USA.gov is the U.S. government's official web portal to all federal, state and local government web resources and services.